Emelle, Alabama
Current Conditions -  °F | °C
As of 7:56 AM on Sunday 21 Dec 2014 (Local Time) from KNMM Reporting Station
Overcast Overcast  
Wind Chill: 39°   Ceiling: 700
Heat Index: 39°   Visibility: 8mi
Dew Point: 37°   Wind: 0mph
Humidity: 93%   Direction: NA
Pressure: 30.17"   Gusts: NA
Location:  32.73°N, 88.31°W
Report Text: KNMM 211356Z AUTO 00000KT 8SM OVC007 04/03 A3017 RMK AO2 CIG 006V009 SLP230 T00390028
Loading
Personal Weather Stations






























Interactive Weather Map New forecast layout! Learn more

10-Day Weather Forecast

Advertisements
Track Severe Weather on mobile